CPX955 Details

Departure: Sacramento International Airport (KSMF)
Arrival: Travis Air Force Base (KSUU) at N/A
Notes: EMPTY | NON-REVENUE REPOSITIONING LEG | VFR DEPARTURE RCMD IF WX PERMITS


Current Weather Information
KSMF 250453Z 18008KT 10SM CLR 24/14 A2986 RMK AO2 SLP112 T02440144
KSUU 250358Z AUTO 22017KT 10SM CLR 23/14 A2988 RMK AO2 SLP125 T02260144